Time;durP1;ratioP1;P1;durP2;ratioP2;P2;SDS_P1;SDS_P2;PMS_P1;PMS_P2;Temp;Humidity;BMP_temperature;BMP_pressure;BME280_temperature;BME280_humidity;BME280_pressure;Samples;Min_cycle;Max_cycle;Signal;HPM_P1;HPM_P2
2023/11/27 00:00:47;;;;;;;7.78;3.75;;;;;;;;;;5094055;28;20048;-59
2023/11/27 00:03:13;;;;;;;6.80;3.80;;;;;;;;;;5093840;28;20056;-59
2023/11/27 00:05:41;;;;;;;7.18;3.95;;;;;;;;;;5093649;28;20063;-59
2023/11/27 00:08:08;;;;;;;10.07;3.60;;;;;;;;;;5093550;28;20063;-59
2023/11/27 00:10:35;;;;;;;5.68;3.80;;;;;;;;;;5094101;28;20055;-59
2023/11/27 00:13:02;;;;;;;8.07;4.35;;;;;;;;;;5093573;28;20416;-59
2023/11/27 00:15:29;;;;;;;8.27;3.85;;;;;;;;;;5093568;28;20063;-59
2023/11/27 00:17:55;;;;;;;9.23;4.10;;;;;;;;;;5093418;28;20052;-60
2023/11/27 00:20:22;;;;;;;8.45;4.07;;;;;;;;;;5093574;28;20051;-59
2023/11/27 00:22:50;;;;;;;6.85;3.80;;;;;;;;;;5093674;28;20052;-59
2023/11/27 00:25:17;;;;;;;8.45;4.07;;;;;;;;;;5093017;28;20052;-59
2023/11/27 00:27:44;;;;;;;7.35;3.50;;;;;;;;;;5093245;28;20059;-60
2023/11/27 00:30:11;;;;;;;8.73;3.72;;;;;;;;;;5093453;28;20059;-59
2023/11/27 00:32:38;;;;;;;8.00;3.65;;;;;;;;;;5092985;28;20417;-59
2023/11/27 00:35:06;;;;;;;7.95;3.90;;;;;;;;;;5093703;28;20056;-59
2023/11/27 00:37:33;;;;;;;9.63;4.28;;;;;;;;;;5093545;28;20392;-59
2023/11/27 00:40:01;;;;;;;9.43;4.07;;;;;;;;;;5093574;28;20048;-60
2023/11/27 00:42:28;;;;;;;8.52;3.88;;;;;;;;;;5092816;28;20056;-59
2023/11/27 00:44:55;;;;;;;6.18;3.78;;;;;;;;;;5082580;28;20404;-59
2023/11/27 00:47:22;;;;;;;7.85;4.05;;;;;;;;;;5072448;28;20052;-59
2023/11/27 00:49:49;;;;;;;5.03;3.40;;;;;;;;;;5072589;28;20053;-59
2023/11/27 00:52:16;;;;;;;7.60;3.40;;;;;;;;;;5073121;28;20056;-59
2023/11/27 00:54:43;;;;;;;7.07;3.70;;;;;;;;;;5072411;28;20067;-59
2023/11/27 00:57:11;;;;;;;5.15;3.30;;;;;;;;;;5073125;28;20052;-59
2023/11/27 00:59:40;;;;;;;7.93;3.50;;;;;;;;;;5072766;28;20424;-59
2023/11/27 01:02:07;;;;;;;6.32;3.33;;;;;;;;;;5073036;28;20146;-59
2023/11/27 01:04:33;;;;;;;7.63;3.75;;;;;;;;;;5072946;28;20048;-59
2023/11/27 01:07:00;;;;;;;6.72;3.28;;;;;;;;;;5072558;28;20119;-59
2023/11/27 01:09:28;;;;;;;5.78;2.70;;;;;;;;;;5072407;28;20064;-60
2023/11/27 01:11:55;;;;;;;8.02;3.05;;;;;;;;;;5072747;28;20053;-59
2023/11/27 01:14:23;;;;;;;5.80;3.20;;;;;;;;;;5072732;28;20056;-59
2023/11/27 01:16:49;;;;;;;7.18;3.78;;;;;;;;;;5072312;28;20053;-59
2023/11/27 01:19:17;;;;;;;6.95;3.95;;;;;;;;;;5071992;28;20049;-59
2023/11/27 01:21:44;;;;;;;7.38;3.63;;;;;;;;;;5072121;28;20374;-59
2023/11/27 01:24:12;;;;;;;9.50;3.55;;;;;;;;;;5072292;28;20511;-59
2023/11/27 01:26:38;;;;;;;8.60;3.75;;;;;;;;;;5071883;28;20057;-59
2023/11/27 01:29:05;;;;;;;5.65;3.40;;;;;;;;;;5072285;28;20056;-59
2023/11/27 01:31:34;;;;;;;7.28;3.47;;;;;;;;;;5072236;28;20048;-59
2023/11/27 01:34:01;;;;;;;5.82;3.60;;;;;;;;;;5072513;28;20496;-60
2023/11/27 01:36:27;;;;;;;5.07;3.20;;;;;;;;;;5072306;28;20049;-59
2023/11/27 01:38:54;;;;;;;7.03;3.78;;;;;;;;;;5071828;28;20060;-59
2023/11/27 01:41:21;;;;;;;7.47;3.80;;;;;;;;;;5071758;28;20060;-58
2023/11/27 01:43:48;;;;;;;11.00;3.80;;;;;;;;;;5072001;28;20049;-59
2023/11/27 01:46:21;;;;;;;8.70;3.97;;;;;;;;;;5072221;28;20060;-59
2023/11/27 01:48:50;;;;;;;9.52;4.40;;;;;;;;;;5072161;28;20063;-58
2023/11/27 01:51:17;;;;;;;7.28;4.03;;;;;;;;;;5071857;28;20052;-58
2023/11/27 01:53:45;;;;;;;6.88;4.20;;;;;;;;;;5071940;28;20477;-59
2023/11/27 01:56:12;;;;;;;8.02;4.25;;;;;;;;;;5071961;28;20048;-59
2023/11/27 01:58:40;;;;;;;6.35;4.07;;;;;;;;;;5071910;28;20044;-59
2023/11/27 02:01:07;;;;;;;7.55;4.35;;;;;;;;;;5071895;28;20060;-59
2023/11/27 02:03:34;;;;;;;9.30;4.65;;;;;;;;;;5071924;28;20052;-59
2023/11/27 02:06:02;;;;;;;8.85;5.25;;;;;;;;;;5071557;28;20056;-59
2023/11/27 02:08:31;;;;;;;8.73;4.63;;;;;;;;;;5071602;28;20390;-59
2023/11/27 02:10:58;;;;;;;8.98;4.82;;;;;;;;;;5071596;28;20048;-59
2023/11/27 02:13:25;;;;;;;8.95;4.60;;;;;;;;;;5072076;28;20057;-60
2023/11/27 02:15:52;;;;;;;8.32;4.65;;;;;;;;;;5071829;28;20477;-59
2023/11/27 02:18:19;;;;;;;11.95;5.07;;;;;;;;;;5072107;28;20056;-59
2023/11/27 02:20:46;;;;;;;11.95;4.85;;;;;;;;;;5075405;28;20045;-59
2023/11/27 02:23:15;;;;;;;7.28;4.93;;;;;;;;;;5075818;28;20048;-59
2023/11/27 02:25:42;;;;;;;10.00;5.10;;;;;;;;;;5075742;28;20048;-60
2023/11/27 02:28:09;;;;;;;8.32;4.90;;;;;;;;;;5075640;28;20052;-59
2023/11/27 02:30:36;;;;;;;8.07;5.28;;;;;;;;;;5075320;28;20060;-59
2023/11/27 02:33:03;;;;;;;9.13;4.70;;;;;;;;;;5075259;28;20511;-59
2023/11/27 02:35:30;;;;;;;9.60;4.95;;;;;;;;;;5075223;28;20053;-59
2023/11/27 02:37:56;;;;;;;6.32;4.65;;;;;;;;;;5075097;28;20063;-58
2023/11/27 02:40:25;;;;;;;8.70;5.18;;;;;;;;;;5075180;28;20480;-59
2023/11/27 02:42:51;;;;;;;10.75;5.80;;;;;;;;;;5074877;28;20094;-59
2023/11/27 02:45:18;;;;;;;8.13;5.22;;;;;;;;;;5074859;28;20497;-60
2023/11/27 02:47:45;;;;;;;8.57;5.70;;;;;;;;;;5075198;28;20049;-58
2023/11/27 02:50:13;;;;;;;11.18;5.25;;;;;;;;;;5075238;28;20488;-58
2023/11/27 02:52:40;;;;;;;8.15;5.68;;;;;;;;;;5074910;28;20079;-61
2023/11/27 02:55:08;;;;;;;8.43;5.50;;;;;;;;;;5075257;28;20056;-59
2023/11/27 02:57:36;;;;;;;11.30;5.32;;;;;;;;;;5075057;28;20053;-59
2023/11/27 03:00:03;;;;;;;8.02;5.45;;;;;;;;;;5074833;28;20052;-59
2023/11/27 03:02:30;;;;;;;9.30;5.78;;;;;;;;;;5074925;28;20056;-59
2023/11/27 03:04:56;;;;;;;10.75;5.70;;;;;;;;;;5074911;28;20056;-59
2023/11/27 03:07:23;;;;;;;8.60;5.47;;;;;;;;;;5075021;28;20064;-58
2023/11/27 03:09:50;;;;;;;8.63;6.00;;;;;;;;;;5075015;28;20053;-60
2023/11/27 03:12:17;;;;;;;12.48;6.00;;;;;;;;;;5074946;28;20055;-60
2023/11/27 03:14:45;;;;;;;9.15;6.32;;;;;;;;;;5074711;28;20049;-58
2023/11/27 03:17:12;;;;;;;8.27;5.72;;;;;;;;;;5074728;28;20048;-59
2023/11/27 03:19:39;;;;;;;9.57;5.43;;;;;;;;;;5074966;28;20068;-58
2023/11/27 03:22:06;;;;;;;9.10;5.72;;;;;;;;;;5074503;28;20051;-58
2023/11/27 03:24:33;;;;;;;9.52;5.50;;;;;;;;;;5074224;28;20056;-58
2023/11/27 03:26:59;;;;;;;7.57;5.45;;;;;;;;;;5074654;28;20059;-59
2023/11/27 03:29:26;;;;;;;10.88;5.95;;;;;;;;;;5074601;28;20055;-59
2023/11/27 03:31:54;;;;;;;9.05;5.68;;;;;;;;;;5074364;28;20074;-59
2023/11/27 03:34:21;;;;;;;10.05;6.03;;;;;;;;;;5074468;28;20056;-58
2023/11/27 03:36:48;;;;;;;12.75;6.90;;;;;;;;;;5074514;28;20048;-58
2023/11/27 03:39:15;;;;;;;8.23;5.55;;;;;;;;;;5074343;28;20049;-59
2023/11/27 03:41:42;;;;;;;8.38;5.80;;;;;;;;;;5073607;28;20059;-58
2023/11/27 03:44:09;;;;;;;8.55;5.75;;;;;;;;;;5073857;28;20386;-58
2023/11/27 03:46:36;;;;;;;9.60;5.50;;;;;;;;;;5074052;28;20059;-58
2023/11/27 03:49:03;;;;;;;11.77;6.40;;;;;;;;;;5074204;28;20055;-59
2023/11/27 03:51:30;;;;;;;9.02;5.85;;;;;;;;;;5074156;28;20075;-59
2023/11/27 03:53:58;;;;;;;7.32;5.70;;;;;;;;;;5073890;28;20477;-59
2023/11/27 03:56:24;;;;;;;8.70;5.95;;;;;;;;;;5073767;28;20048;-59
2023/11/27 03:58:51;;;;;;;7.63;5.72;;;;;;;;;;5073803;28;20078;-60
2023/11/27 04:01:18;;;;;;;7.40;5.32;;;;;;;;;;5073542;28;20170;-59
2023/11/27 04:03:45;;;;;;;8.55;5.85;;;;;;;;;;5073457;28;20052;-59
2023/11/27 04:06:22;;;;;;;9.73;5.88;;;;;;;;;;5073472;28;20067;-59
2023/11/27 04:08:49;;;;;;;8.07;5.80;;;;;;;;;;5073698;28;20056;-59
2023/11/27 04:11:15;;;;;;;10.05;6.25;;;;;;;;;;5073344;28;20048;-60
2023/11/27 04:13:42;;;;;;;7.80;5.43;;;;;;;;;;5073744;28;20060;-59
2023/11/27 04:16:09;;;;;;;8.82;5.90;;;;;;;;;;5073446;28;20059;-60
2023/11/27 04:18:36;;;;;;;9.52;6.32;;;;;;;;;;5073502;28;20052;-59
2023/11/27 04:21:03;;;;;;;9.82;5.45;;;;;;;;;;5073341;28;20519;-60
2023/11/27 04:23:31;;;;;;;9.25;5.70;;;;;;;;;;5073019;28;20059;-59
2023/11/27 04:25:58;;;;;;;11.02;6.57;;;;;;;;;;5073188;28;20053;-60
2023/11/27 04:28:25;;;;;;;6.65;5.13;;;;;;;;;;5073484;28;20392;-60
2023/11/27 04:30:52;;;;;;;10.10;5.68;;;;;;;;;;5073147;28;20052;-60
2023/11/27 04:33:20;;;;;;;8.05;5.30;;;;;;;;;;5073182;28;20048;-60
2023/11/27 04:35:47;;;;;;;8.23;5.75;;;;;;;;;;5073199;28;20520;-60
2023/11/27 04:38:13;;;;;;;8.10;5.53;;;;;;;;;;5073132;28;20066;-60
2023/11/27 04:40:42;;;;;;;7.70;5.07;;;;;;;;;;5070682;28;20056;-59
2023/11/27 04:43:10;;;;;;;8.65;5.28;;;;;;;;;;5072010;28;20052;-59
2023/11/27 04:45:37;;;;;;;7.38;5.43;;;;;;;;;;5072800;28;20397;-59
2023/11/27 04:48:04;;;;;;;9.32;5.28;;;;;;;;;;5072655;28;20063;-60
2023/11/27 04:50:30;;;;;;;7.72;5.00;;;;;;;;;;5072904;28;20048;-60
2023/11/27 04:52:57;;;;;;;9.02;4.93;;;;;;;;;;5072612;28;20065;-59
2023/11/27 04:55:24;;;;;;;9.73;4.97;;;;;;;;;;5072220;28;20053;-59
2023/11/27 04:57:52;;;;;;;8.30;4.93;;;;;;;;;;5072969;28;20401;-59
2023/11/27 05:00:19;;;;;;;6.47;5.00;;;;;;;;;;5072732;28;20055;-60
2023/11/27 05:02:46;;;;;;;8.10;5.00;;;;;;;;;;5072500;28;20492;-59
2023/11/27 05:05:14;;;;;;;9.38;5.13;;;;;;;;;;5072174;28;20075;-59
2023/11/27 05:07:41;;;;;;;11.10;5.78;;;;;;;;;;5072731;28;20170;-60
2023/11/27 05:10:10;;;;;;;8.02;5.60;;;;;;;;;;5072665;28;20067;-59
2023/11/27 05:12:36;;;;;;;8.50;5.05;;;;;;;;;;5072074;28;20052;-59
2023/11/27 05:15:06;;;;;;;8.35;5.25;;;;;;;;;;5072447;28;20497;-60
2023/11/27 05:17:32;;;;;;;9.30;6.63;;;;;;;;;;5072710;28;20052;-59
2023/11/27 05:19:59;;;;;;;9.85;7.00;;;;;;;;;;5072337;28;20057;-60
2023/11/27 05:22:26;;;;;;;10.85;7.22;;;;;;;;;;5072753;28;20111;-59
2023/11/27 05:24:53;;;;;;;15.18;9.50;;;;;;;;;;5072137;28;20071;-59
2023/11/27 05:27:21;;;;;;;14.52;8.80;;;;;;;;;;5072490;28;20074;-59
2023/11/27 05:29:48;;;;;;;15.32;8.82;;;;;;;;;;5072326;28;20053;-59
2023/11/27 05:32:17;;;;;;;11.43;8.07;;;;;;;;;;5072179;28;20056;-59
2023/11/27 05:34:44;;;;;;;15.63;9.20;;;;;;;;;;5070435;28;20142;-59
2023/11/27 05:37:11;;;;;;;9.38;7.45;;;;;;;;;;5072149;28;20052;-60
2023/11/27 05:39:41;;;;;;;13.98;7.75;;;;;;;;;;5072114;28;20079;-59
2023/11/27 05:42:11;;;;;;;11.70;7.68;;;;;;;;;;5071614;28;20056;-60
2023/11/27 05:44:38;;;;;;;10.70;7.10;;;;;;;;;;5072048;28;20391;-59
2023/11/27 05:47:05;;;;;;;13.52;8.73;;;;;;;;;;5072298;28;20048;-59
2023/11/27 05:49:33;;;;;;;10.70;6.50;;;;;;;;;;5072099;28;20052;-59
2023/11/27 05:52:00;;;;;;;15.82;9.00;;;;;;;;;;5071866;28;20048;-59
2023/11/27 05:54:27;;;;;;;11.35;6.85;;;;;;;;;;5073838;28;20059;-59
2023/11/27 05:56:54;;;;;;;10.68;6.53;;;;;;;;;;5075873;28;20073;-59
2023/11/27 05:59:21;;;;;;;13.02;6.75;;;;;;;;;;5075893;28;20060;-60
2023/11/27 06:01:48;;;;;;;9.32;6.18;;;;;;;;;;5075748;28;20059;-59
2023/11/27 06:04:15;;;;;;;8.77;5.43;;;;;;;;;;5075324;28;20052;-59
2023/11/27 06:06:43;;;;;;;7.38;5.63;;;;;;;;;;5075684;28;20382;-59
2023/11/27 06:09:11;;;;;;;11.68;6.22;;;;;;;;;;5075356;28;20052;-59
2023/11/27 06:11:38;;;;;;;8.90;5.28;;;;;;;;;;5075538;28;20056;-59
2023/11/27 06:14:04;;;;;;;8.50;5.18;;;;;;;;;;5075237;28;20056;-59
2023/11/27 06:16:31;;;;;;;8.00;5.57;;;;;;;;;;5075531;28;20454;-59
2023/11/27 06:18:58;;;;;;;11.52;4.88;;;;;;;;;;5075377;28;20072;-59
2023/11/27 06:21:25;;;;;;;10.05;5.45;;;;;;;;;;5075627;28;20053;-59
2023/11/27 06:23:53;;;;;;;7.28;4.55;;;;;;;;;;5075334;28;20060;-59
2023/11/27 06:26:20;;;;;;;9.15;5.55;;;;;;;;;;5075442;28;20052;-59
2023/11/27 06:28:47;;;;;;;8.60;5.18;;;;;;;;;;5075290;28;20465;-59
2023/11/27 06:31:15;;;;;;;8.30;4.70;;;;;;;;;;5075408;28;20078;-59
2023/11/27 06:33:42;;;;;;;9.63;4.50;;;;;;;;;;5074877;28;20128;-60
2023/11/27 06:36:10;;;;;;;9.90;4.88;;;;;;;;;;5075049;28;20059;-59
2023/11/27 06:38:37;;;;;;;10.27;5.05;;;;;;;;;;5074778;28;20049;-60
2023/11/27 06:41:07;;;;;;;7.80;4.63;;;;;;;;;;5075077;28;20071;-60
2023/11/27 06:43:34;;;;;;;6.38;4.43;;;;;;;;;;5074846;28;20056;-60
2023/11/27 06:46:01;;;;;;;7.68;4.20;;;;;;;;;;5074708;28;20061;-59
2023/11/27 06:48:29;;;;;;;6.85;4.38;;;;;;;;;;5074831;28;20063;-60
2023/11/27 06:50:56;;;;;;;8.77;4.57;;;;;;;;;;5074787;28;20056;-59
2023/11/27 06:53:24;;;;;;;6.97;4.60;;;;;;;;;;5074826;28;20067;-60
2023/11/27 06:55:50;;;;;;;7.47;4.80;;;;;;;;;;5074612;28;20048;-60
2023/11/27 06:58:19;;;;;;;10.00;4.80;;;;;;;;;;5074884;28;20064;-60
2023/11/27 07:00:47;;;;;;;10.00;5.10;;;;;;;;;;5074593;28;20052;-60
2023/11/27 07:03:13;;;;;;;7.43;4.90;;;;;;;;;;5074513;28;20056;-60
2023/11/27 07:05:40;;;;;;;9.27;5.03;;;;;;;;;;5073762;28;20064;-60
2023/11/27 07:08:07;;;;;;;11.30;5.22;;;;;;;;;;5074220;28;20056;-60
2023/11/27 07:10:35;;;;;;;9.20;4.72;;;;;;;;;;5074565;28;20405;-60
2023/11/27 07:13:01;;;;;;;10.40;5.38;;;;;;;;;;5074770;28;20492;-60
2023/11/27 07:15:29;;;;;;;7.90;4.88;;;;;;;;;;5074428;28;20080;-60
2023/11/27 07:17:57;;;;;;;9.90;5.50;;;;;;;;;;5074642;28;20063;-60
2023/11/27 07:20:24;;;;;;;7.40;4.50;;;;;;;;;;5074222;28;20075;-60
2023/11/27 07:22:51;;;;;;;9.25;5.03;;;;;;;;;;5074278;28;20045;-60
2023/11/27 07:25:18;;;;;;;7.88;4.65;;;;;;;;;;5074060;28;20063;-60
2023/11/27 07:27:49;;;;;;;8.60;4.47;;;;;;;;;;5073900;28;20048;-60
2023/11/27 07:30:16;;;;;;;8.15;4.88;;;;;;;;;;5073916;28;20052;-60
2023/11/27 07:32:44;;;;;;;11.77;5.18;;;;;;;;;;5074231;28;20052;-60
2023/11/27 07:35:11;;;;;;;8.02;4.50;;;;;;;;;;5074100;28;20059;-60
2023/11/27 07:37:38;;;;;;;8.65;4.50;;;;;;;;;;5074214;28;20464;-60
2023/11/27 07:40:09;;;;;;;9.23;4.88;;;;;;;;;;5073774;28;20056;-60
2023/11/27 07:42:36;;;;;;;9.32;4.53;;;;;;;;;;5072994;28;20057;-59
2023/11/27 07:45:04;;;;;;;7.97;4.78;;;;;;;;;;5073698;28;20485;-60
2023/11/27 07:47:31;;;;;;;7.78;4.60;;;;;;;;;;5073313;28;20063;-60
2023/11/27 07:49:59;;;;;;;7.88;4.50;;;;;;;;;;5073563;28;20057;-60
2023/11/27 07:52:26;;;;;;;9.77;4.82;;;;;;;;;;5074379;28;20466;-60
2023/11/27 07:54:53;;;;;;;6.95;4.78;;;;;;;;;;5073427;28;20052;-60
2023/11/27 07:57:21;;;;;;;9.20;4.78;;;;;;;;;;5074046;28;20052;-59
2023/11/27 07:59:48;;;;;;;10.10;4.90;;;;;;;;;;5073630;28;20466;-59
2023/11/27 08:02:15;;;;;;;6.53;4.13;;;;;;;;;;5073749;28;20096;-60
2023/11/27 08:04:42;;;;;;;7.25;4.53;;;;;;;;;;5073380;28;20060;-60
2023/11/27 08:07:10;;;;;;;7.15;4.80;;;;;;;;;;5073579;28;20079;-60
2023/11/27 08:09:37;;;;;;;7.63;4.50;;;;;;;;;;5073494;28;20048;-59
2023/11/27 08:12:04;;;;;;;7.15;4.45;;;;;;;;;;5073424;28;20402;-59
2023/11/27 08:14:31;;;;;;;7.60;4.75;;;;;;;;;;5073763;28;20059;-59
2023/11/27 08:16:58;;;;;;;6.60;4.70;;;;;;;;;;5072487;28;20052;-59
2023/11/27 08:19:24;;;;;;;8.15;4.25;;;;;;;;;;5072869;28;20178;-59
2023/11/27 08:21:51;;;;;;;9.25;5.03;;;;;;;;;;5073426;28;20049;-59
2023/11/27 08:24:20;;;;;;;8.30;5.10;;;;;;;;;;5073206;28;20454;-59
2023/11/27 08:26:49;;;;;;;11.13;6.82;;;;;;;;;;5073095;28;20048;-59
2023/11/27 08:29:17;;;;;;;7.85;4.38;;;;;;;;;;5073023;28;20052;-59
2023/11/27 08:31:45;;;;;;;7.72;5.53;;;;;;;;;;5072980;28;20060;-59
2023/11/27 08:34:13;;;;;;;7.45;5.38;;;;;;;;;;5072539;28;20049;-59
2023/11/27 08:36:40;;;;;;;6.82;5.10;;;;;;;;;;5072820;28;20473;-59
2023/11/27 08:39:10;;;;;;;6.97;4.40;;;;;;;;;;5072726;28;20057;-59
2023/11/27 08:41:38;;;;;;;8.30;5.15;;;;;;;;;;5072481;28;20531;-59
2023/11/27 08:44:08;;;;;;;7.05;4.90;;;;;;;;;;5072671;28;20053;-59
2023/11/27 08:46:35;;;;;;;6.07;4.70;;;;;;;;;;5073039;28;20063;-58
2023/11/27 08:49:02;;;;;;;5.95;4.47;;;;;;;;;;5072405;28;20052;-59
2023/11/27 08:51:29;;;;;;;5.05;3.85;;;;;;;;;;5072769;28;20056;-59
2023/11/27 08:53:56;;;;;;;6.70;4.68;;;;;;;;;;5072449;28;20056;-59
2023/11/27 08:56:23;;;;;;;5.38;3.88;;;;;;;;;;5072591;28;20052;-59
2023/11/27 08:58:51;;;;;;;5.40;4.10;;;;;;;;;;5072271;28;20053;-59
2023/11/27 09:01:18;;;;;;;5.70;3.00;;;;;;;;;;5072377;28;20056;-59
2023/11/27 09:03:44;;;;;;;4.78;3.15;;;;;;;;;;5071796;28;20056;-59
2023/11/27 09:06:12;;;;;;;4.45;3.20;;;;;;;;;;5071955;28;20079;-59
2023/11/27 09:08:39;;;;;;;4.00;2.75;;;;;;;;;;5072102;28;20048;-59
2023/11/27 09:11:06;;;;;;;4.68;2.50;;;;;;;;;;5072082;28;20061;-59
2023/11/27 09:13:33;;;;;;;3.10;2.10;;;;;;;;;;5071140;28;20162;-59
2023/11/27 09:16:01;;;;;;;3.53;2.10;;;;;;;;;;5071768;28;20350;-59
2023/11/27 09:18:28;;;;;;;3.13;2.05;;;;;;;;;;5072519;28;20052;-59
2023/11/27 09:20:55;;;;;;;4.95;2.00;;;;;;;;;;5072430;28;20057;-59
2023/11/27 09:23:22;;;;;;;6.25;2.15;;;;;;;;;;5071953;28;20055;-59
2023/11/27 09:25:49;;;;;;;2.80;1.80;;;;;;;;;;5071749;28;20071;-59
2023/11/27 09:28:15;;;;;;;3.80;1.52;;;;;;;;;;5071874;28;20056;-59
2023/11/27 09:30:42;;;;;;;10.10;2.03;;;;;;;;;;5071833;28;20052;-58
2023/11/27 09:33:12;;;;;;;3.65;1.67;;;;;;;;;;5071688;28;20049;-59
2023/11/27 09:35:39;;;;;;;3.05;2.00;;;;;;;;;;5072185;28;20056;-59
2023/11/27 09:38:08;;;;;;;3.35;1.88;;;;;;;;;;5071632;28;20409;-59
2023/11/27 09:40:39;;;;;;;2.50;1.60;;;;;;;;;;5071540;28;20075;-59
2023/11/27 09:43:06;;;;;;;2.50;1.80;;;;;;;;;;5071385;28;20060;-60
2023/11/27 09:45:33;;;;;;;2.47;1.40;;;;;;;;;;5071871;28;20056;-59
2023/11/27 09:48:01;;;;;;;1.90;1.25;;;;;;;;;;5071940;28;20056;-59
2023/11/27 09:50:31;;;;;;;3.53;1.65;;;;;;;;;;5071835;28;20049;-59
2023/11/27 09:53:01;;;;;;;3.45;1.50;;;;;;;;;;5072176;28;20052;-60
2023/11/27 09:55:29;;;;;;;3.33;2.00;;;;;;;;;;5071646;28;20497;-60
2023/11/27 09:57:59;;;;;;;6.05;1.35;;;;;;;;;;5071880;28;20052;-61
2023/11/27 10:00:27;;;;;;;7.63;1.63;;;;;;;;;;5071652;28;20397;-60
2023/11/27 10:02:54;;;;;;;2.20;1.60;;;;;;;;;;5071492;28;20512;-66
2023/11/27 10:05:22;;;;;;;2.35;1.02;;;;;;;;;;5071337;28;20057;-67
2023/11/27 10:07:51;;;;;;;2.15;1.20;;;;;;;;;;5072168;28;20052;-67
2023/11/27 10:10:25;;;;;;;2.40;1.50;;;;;;;;;;5071605;28;20052;-67
2023/11/27 10:12:53;;;;;;;1.90;1.30;;;;;;;;;;5071818;28;20052;-67
2023/11/27 10:15:20;;;;;;;2.72;1.40;;;;;;;;;;5071251;28;20045;-68
2023/11/27 10:17:47;;;;;;;1.88;1.20;;;;;;;;;;5071601;28;20052;-68
2023/11/27 10:20:15;;;;;;;5.13;1.67;;;;;;;;;;5071463;28;20053;-68
2023/11/27 10:22:42;;;;;;;1.60;1.10;;;;;;;;;;5071766;28;20052;-68
2023/11/27 10:25:13;;;;;;;3.30;1.40;;;;;;;;;;5071189;28;20049;-68
2023/11/27 10:27:41;;;;;;;2.20;1.48;;;;;;;;;;5071619;28;20493;-68
2023/11/27 10:30:12;;;;;;;1.35;0.90;;;;;;;;;;5071643;28;20405;-68
2023/11/27 10:32:39;;;;;;;2.63;1.02;;;;;;;;;;5071700;28;20059;-67
2023/11/27 10:35:08;;;;;;;1.80;1.10;;;;;;;;;;5071449;28;20508;-67
2023/11/27 10:37:35;;;;;;;2.10;1.40;;;;;;;;;;5071520;28;20140;-68
2023/11/27 10:40:04;;;;;;;1.92;1.30;;;;;;;;;;5072762;28;20056;-68
2023/11/27 10:42:34;;;;;;;2.03;1.38;;;;;;;;;;5074781;28;20048;-67
2023/11/27 10:45:08;;;;;;;1.92;0.77;;;;;;;;;;5074731;28;20425;-67
2023/11/27 10:47:35;;;;;;;2.15;1.40;;;;;;;;;;5075166;28;20477;-67
2023/11/27 10:50:03;;;;;;;1.77;0.90;;;;;;;;;;5075090;28;20057;-67
2023/11/27 10:52:38;;;;;;;3.05;1.10;;;;;;;;;;5075144;28;20433;-67
2023/11/27 10:55:06;;;;;;;1.85;1.35;;;;;;;;;;5074844;28;20048;-66
2023/11/27 10:57:35;;;;;;;3.22;1.10;;;;;;;;;;5074944;28;20068;-66
2023/11/27 11:00:03;;;;;;;;;;;;;;;;;;5075054;28;20048;-66
2023/11/27 11:02:30;;;;;;;1.70;1.13;;;;;;;;;;5075266;28;19920;-65
2023/11/27 11:05:00;;;;;;;2.13;1.40;;;;;;;;;;5074439;28;20056;-65
2023/11/27 11:07:33;;;;;;;1.77;1.30;;;;;;;;;;5074795;28;20052;-65
2023/11/27 11:10:05;;;;;;;2.08;1.58;;;;;;;;;;5074641;28;20060;-66
2023/11/27 11:12:32;;;;;;;2.10;1.33;;;;;;;;;;5074674;28;20512;-66
2023/11/27 11:15:01;;;;;;;1.52;1.00;;;;;;;;;;5074196;28;20045;-65
2023/11/27 11:17:37;;;;;;;2.85;1.90;;;;;;;;;;5074648;28;20048;-65
2023/11/27 11:20:14;;;;;;;3.88;2.78;;;;;;;;;;5074610;28;20401;-66
2023/11/27 11:22:47;;;;;;;2.00;1.40;;;;;;;;;;5074319;28;20401;-65
2023/11/27 11:25:19;;;;;;;2.13;1.27;;;;;;;;;;5073884;28;20044;-66
2023/11/27 11:27:50;;;;;;;2.80;2.17;;;;;;;;;;5074162;28;20060;-65
2023/11/27 11:30:20;;;;;;;1.50;0.80;;;;;;;;;;5074040;28;20052;-65
2023/11/27 11:32:47;;;;;;;1.70;1.35;;;;;;;;;;5073919;28;20053;-65
2023/11/27 11:35:14;;;;;;;2.13;1.40;;;;;;;;;;5073670;28;20064;-65
2023/11/27 11:37:46;;;;;;;2.35;1.50;;;;;;;;;;5074003;28;20405;-65
2023/11/27 11:40:14;;;;;;;2.97;1.40;;;;;;;;;;5073637;28;20052;-65
2023/11/27 11:42:44;;;;;;;3.47;1.60;;;;;;;;;;5073583;28;20056;-65
2023/11/27 11:45:16;;;;;;;2.13;1.23;;;;;;;;;;5073441;28;20432;-65
2023/11/27 11:47:51;;;;;;;1.90;1.10;;;;;;;;;;5073634;28;20075;-65
2023/11/27 11:50:40;;;;;;;2.13;1.50;;;;;;;;;;5073575;28;20408;-65
2023/11/27 11:53:22;;;;;;;1.88;1.45;;;;;;;;;;5073848;28;20104;-65
2023/11/27 11:55:50;;;;;;;2.20;2.00;;;;;;;;;;5073466;28;20052;-65
2023/11/27 11:58:30;;;;;;;2.78;1.90;;;;;;;;;;5073836;28;20059;-65
2023/11/27 12:01:01;;;;;;;19.73;2.17;;;;;;;;;;5073590;28;20052;-65
2023/11/27 12:03:31;;;;;;;1.90;1.10;;;;;;;;;;5073567;28;20052;-65
2023/11/27 12:06:02;;;;;;;1.70;1.10;;;;;;;;;;5073449;28;20473;-65
2023/11/27 12:08:30;;;;;;;1.77;1.08;;;;;;;;;;5073451;28;20059;-65
2023/11/27 12:10:57;;;;;;;1.83;1.13;;;;;;;;;;5072965;28;20048;-65
2023/11/27 12:13:25;;;;;;;1.83;0.98;;;;;;;;;;5072962;28;20053;-66
2023/11/27 12:15:56;;;;;;;2.00;1.00;;;;;;;;;;5073082;28;20500;-65
2023/11/27 12:18:25;;;;;;;2.05;1.20;;;;;;;;;;5072849;28;20064;-65
2023/11/27 12:20:54;;;;;;;1.60;1.05;;;;;;;;;;5073268;28;20052;-65
2023/11/27 12:23:21;;;;;;;2.40;1.10;;;;;;;;;;5072832;28;20049;-65
2023/11/27 12:25:48;;;;;;;1.70;1.23;;;;;;;;;;5073066;28;20461;-66
2023/11/27 12:28:15;;;;;;;1.88;1.30;;;;;;;;;;5072704;28;20060;-65
2023/11/27 12:30:43;;;;;;;2.40;1.58;;;;;;;;;;5072667;28;20055;-66
2023/11/27 12:33:10;;;;;;;2.00;1.70;;;;;;;;;;5072739;28;20409;-66
2023/11/27 12:35:38;;;;;;;2.53;1.67;;;;;;;;;;5072569;28;20053;-66
2023/11/27 12:38:07;;;;;;;1.42;0.90;;;;;;;;;;5072736;28;20067;-66
2023/11/27 12:40:35;;;;;;;2.83;1.60;;;;;;;;;;5072521;28;20063;-66
2023/11/27 12:43:05;;;;;;;2.67;1.75;;;;;;;;;;5072378;28;20061;-66
2023/11/27 12:45:32;;;;;;;2.35;1.30;;;;;;;;;;5072631;28;20065;-66
2023/11/27 12:48:06;;;;;;;2.92;1.40;;;;;;;;;;5072604;28;20455;-66
2023/11/27 12:50:38;;;;;;;2.03;1.30;;;;;;;;;;5072208;28;20060;-66
2023/11/27 12:53:08;;;;;;;1.60;1.10;;;;;;;;;;5072625;28;20420;-66
2023/11/27 12:55:36;;;;;;;1.50;1.10;;;;;;;;;;5072692;28;20059;-66
2023/11/27 12:58:04;;;;;;;3.22;1.75;;;;;;;;;;5072715;28;20481;-66
2023/11/27 13:00:31;;;;;;;2.63;1.85;;;;;;;;;;5072368;28;20052;-66
2023/11/27 13:02:58;;;;;;;1.73;1.27;;;;;;;;;;5071756;28;20056;-66
2023/11/27 13:05:28;;;;;;;1.85;1.23;;;;;;;;;;5071962;28;20493;-66
2023/11/27 13:07:57;;;;;;;;;;;;;;;;;;5072451;28;20056;-66
2023/11/27 13:10:25;;;;;;;1.73;1.20;;;;;;;;;;5072105;28;20400;-66
2023/11/27 13:12:54;;;;;;;4.70;1.25;;;;;;;;;;5072090;28;20048;-66
2023/11/27 13:15:23;;;;;;;3.17;2.00;;;;;;;;;;5072232;28;20059;-65
2023/11/27 13:17:59;;;;;;;5.00;2.53;;;;;;;;;;5072477;28;20490;-66
2023/11/27 13:20:27;;;;;;;2.10;1.30;;;;;;;;;;5072334;28;20060;-65
2023/11/27 13:22:53;;;;;;;4.70;3.92;;;;;;;;;;5072129;28;20069;-66
2023/11/27 13:25:23;;;;;;;3.65;2.55;;;;;;;;;;5071669;28;20044;-66
2023/11/27 13:27:51;;;;;;;1.60;1.10;;;;;;;;;;5071984;28;20056;-66
2023/11/27 13:30:26;;;;;;;4.43;3.42;;;;;;;;;;5072052;28;20057;-66
2023/11/27 13:32:57;;;;;;;3.45;2.42;;;;;;;;;;5071860;28;20068;-66
2023/11/27 13:35:29;;;;;;;5.03;3.85;;;;;;;;;;5072140;28;20072;-66
2023/11/27 13:38:00;;;;;;;3.42;2.60;;;;;;;;;;5072005;28;20099;-66
2023/11/27 13:40:28;;;;;;;2.88;2.28;;;;;;;;;;5072013;28;20505;-66
2023/11/27 13:42:56;;;;;;;2.92;2.20;;;;;;;;;;5071762;28;20056;-65
2023/11/27 13:45:32;;;;;;;3.65;2.60;;;;;;;;;;5071738;28;20413;-65
2023/11/27 13:47:59;;;;;;;3.45;2.47;;;;;;;;;;5072118;28;20408;-65
2023/11/27 13:50:36;;;;;;;3.83;2.70;;;;;;;;;;5071983;28;20413;-66
2023/11/27 13:53:04;;;;;;;3.20;1.95;;;;;;;;;;5071740;28;20048;-66
2023/11/27 13:55:35;;;;;;;1.92;1.40;;;;;;;;;;5071943;28;20052;-66
2023/11/27 13:58:08;;;;;;;2.20;1.70;;;;;;;;;;5071734;28;20445;-66
2023/11/27 14:00:42;;;;;;;3.30;2.90;;;;;;;;;;5072029;28;20059;-67
2023/11/27 14:03:11;;;;;;;2.83;1.83;;;;;;;;;;5071906;28;20420;-66
2023/11/27 14:05:38;;;;;;;4.25;3.40;;;;;;;;;;5071161;28;20393;-66
2023/11/27 14:08:10;;;;;;;2.13;1.48;;;;;;;;;;5071310;28;20059;-66
2023/11/27 14:10:54;;;;;;;2.72;1.85;;;;;;;;;;5071409;28;20056;-65
2023/11/27 14:13:22;;;;;;;7.00;6.40;;;;;;;;;;5071431;28;20139;-66
2023/11/27 14:15:48;;;;;;;2.65;2.38;;;;;;;;;;5074471;28;20374;-66
2023/11/27 14:18:45;;;;;;;2.53;2.03;;;;;;;;;;5075332;28;20059;-65
2023/11/27 14:23:57;;;;;;;3.83;2.97;;;;;;;;;;5081491;28;20052;-65
2023/11/27 14:27:04;;;;;;;2.30;1.90;;;;;;;;;;5074912;28;20048;-65
2023/11/27 14:29:37;;;;;;;2.83;2.00;;;;;;;;;;5075452;28;20055;-65
2023/11/27 14:32:07;;;;;;;2.30;2.00;;;;;;;;;;5075528;28;20059;-64
2023/11/27 14:34:34;;;;;;;3.85;2.60;;;;;;;;;;5075325;28;20061;-64
2023/11/27 14:37:01;;;;;;;2.90;2.13;;;;;;;;;;5075572;28;20049;-65
2023/11/27 14:39:32;;;;;;;3.25;2.42;;;;;;;;;;5075186;28;20057;-65
2023/11/27 14:42:00;;;;;;;3.50;2.30;;;;;;;;;;5074696;28;20059;-66
2023/11/27 14:44:27;;;;;;;5.05;3.70;;;;;;;;;;5075045;28;20048;-69
2023/11/27 14:46:55;;;;;;;2.30;1.70;;;;;;;;;;5075110;28;20048;-67
2023/11/27 14:49:24;;;;;;;2.00;1.60;;;;;;;;;;5074634;28;20045;-66
2023/11/27 14:51:55;;;;;;;3.35;2.50;;;;;;;;;;5075513;28;20052;-66